sensor_id;sensor_type;location;lat;lon;timestamp;temperature;humidity
53534;DHT22;39421;53.204;6.568;2022-11-03T00:00:29;11.80;99.90
53534;DHT22;39421;53.204;6.568;2022-11-03T00:02:55;11.90;99.90
53534;DHT22;39421;53.204;6.568;2022-11-03T00:05:20;11.90;99.90
53534;DHT22;39421;53.204;6.568;2022-11-03T00:08:05;11.80;99.90
53534;DHT22;39421;53.204;6.568;2022-11-03T00:10:33;11.90;99.90
53534;DHT22;39421;53.204;6.568;2022-11-03T00:12:59;11.90;99.90
53534;DHT22;39421;53.204;6.568;2022-11-03T00:15:25;11.80;99.90
53534;DHT22;39421;53.204;6.568;2022-11-03T00:17:50;11.90;99.90
53534;DHT22;39421;53.204;6.568;2022-11-03T00:20:16;11.90;99.90
53534;DHT22;39421;53.204;6.568;2022-11-03T00:22:42;11.80;99.90
53534;DHT22;39421;53.204;6.568;2022-11-03T00:25:07;11.90;99.90
53534;DHT22;39421;53.204;6.568;2022-11-03T00:27:33;11.90;99.90
53534;DHT22;39421;53.204;6.568;2022-11-03T00:29:59;11.90;99.90
53534;DHT22;39421;53.204;6.568;2022-11-03T00:32:24;11.80;99.90
53534;DHT22;39421;53.204;6.568;2022-11-03T00:34:50;11.80;99.90
53534;DHT22;39421;53.204;6.568;2022-11-03T00:37:15;11.80;99.90
53534;DHT22;39421;53.204;6.568;2022-11-03T00:39:43;11.80;99.90
53534;DHT22;39421;53.204;6.568;2022-11-03T00:42:09;11.80;99.90
53534;DHT22;39421;53.204;6.568;2022-11-03T00:44:34;11.80;99.90
53534;DHT22;39421;53.204;6.568;2022-11-03T00:47:00;11.80;99.90
53534;DHT22;39421;53.204;6.568;2022-11-03T00:49:25;11.80;99.90
53534;DHT22;39421;53.204;6.568;2022-11-03T00:51:51;11.80;99.90
53534;DHT22;39421;53.204;6.568;2022-11-03T00:54:17;11.80;99.90
53534;DHT22;39421;53.204;6.568;2022-11-03T00:56:42;11.80;99.90
53534;DHT22;39421;53.204;6.568;2022-11-03T00:59:09;11.80;99.90
53534;DHT22;39421;53.204;6.568;2022-11-03T01:01:40;11.80;99.90
53534;DHT22;39421;53.204;6.568;2022-11-03T01:04:07;11.80;99.90
53534;DHT22;39421;53.204;6.568;2022-11-03T01:06:54;11.80;99.90
53534;DHT22;39421;53.204;6.568;2022-11-03T01:14:45;11.80;99.90
53534;DHT22;39421;53.204;6.568;2022-11-03T01:17:16;11.80;99.90
53534;DHT22;39421;53.204;6.568;2022-11-03T01:19:43;11.80;99.90
53534;DHT22;39421;53.204;6.568;2022-11-03T01:22:09;11.80;99.90
53534;DHT22;39421;53.204;6.568;2022-11-03T01:24:35;11.70;99.90
53534;DHT22;39421;53.204;6.568;2022-11-03T01:27:01;11.80;99.90
53534;DHT22;39421;53.204;6.568;2022-11-03T01:29:26;11.80;99.90
53534;DHT22;39421;53.204;6.568;2022-11-03T01:31:52;11.80;99.90
53534;DHT22;39421;53.204;6.568;2022-11-03T01:34:19;11.80;99.90
53534;DHT22;39421;53.204;6.568;2022-11-03T01:36:46;11.80;99.90
53534;DHT22;39421;53.204;6.568;2022-11-03T01:39:16;11.80;99.90
53534;DHT22;39421;53.204;6.568;2022-11-03T01:41:44;11.80;99.90
53534;DHT22;39421;53.204;6.568;2022-11-03T01:51:55;11.80;99.90
53534;DHT22;39421;53.204;6.568;2022-11-03T01:54:23;11.80;99.90
53534;DHT22;39421;53.204;6.568;2022-11-03T01:56:51;11.80;99.90
53534;DHT22;39421;53.204;6.568;2022-11-03T01:59:17;11.80;99.90
53534;DHT22;39421;53.204;6.568;2022-11-03T02:01:46;11.80;99.90
53534;DHT22;39421;53.204;6.568;2022-11-03T02:04:20;11.80;99.90
53534;DHT22;39421;53.204;6.568;2022-11-03T02:06:51;11.70;99.90
53534;DHT22;39421;53.204;6.568;2022-11-03T02:09:19;11.70;99.90
53534;DHT22;39421;53.204;6.568;2022-11-03T02:11:45;11.70;99.90
53534;DHT22;39421;53.204;6.568;2022-11-03T02:14:29;11.60;99.90
53534;DHT22;39421;53.204;6.568;2022-11-03T02:17:02;11.60;99.90
53534;DHT22;39421;53.204;6.568;2022-11-03T02:19:40;11.60;99.90
53534;DHT22;39421;53.204;6.568;2022-11-03T02:25:16;11.60;99.90
53534;DHT22;39421;53.204;6.568;2022-11-03T02:27:43;11.60;99.90
53534;DHT22;39421;53.204;6.568;2022-11-03T02:30:09;11.60;99.90
53534;DHT22;39421;53.204;6.568;2022-11-03T02:35:23;11.60;99.90
53534;DHT22;39421;53.204;6.568;2022-11-03T02:37:55;11.50;99.90
53534;DHT22;39421;53.204;6.568;2022-11-03T02:40:32;11.50;99.90
53534;DHT22;39421;53.204;6.568;2022-11-03T02:42:59;11.50;99.90
53534;DHT22;39421;53.204;6.568;2022-11-03T02:45:27;11.50;99.90
53534;DHT22;39421;53.204;6.568;2022-11-03T02:47:56;11.50;99.90
53534;DHT22;39421;53.204;6.568;2022-11-03T02:50:28;11.50;99.90
53534;DHT22;39421;53.204;6.568;2022-11-03T02:52:54;11.50;99.90
53534;DHT22;39421;53.204;6.568;2022-11-03T02:55:44;11.50;99.90
53534;DHT22;39421;53.204;6.568;2022-11-03T03:01:02;11.50;99.90
53534;DHT22;39421;53.204;6.568;2022-11-03T03:03:37;11.50;99.90
53534;DHT22;39421;53.204;6.568;2022-11-03T03:06:08;11.50;99.90
53534;DHT22;39421;53.204;6.568;2022-11-03T03:08:39;11.50;99.90
53534;DHT22;39421;53.204;6.568;2022-11-03T03:11:07;11.50;99.90
53534;DHT22;39421;53.204;6.568;2022-11-03T03:13:34;11.50;99.90
53534;DHT22;39421;53.204;6.568;2022-11-03T03:16:21;11.50;99.90
53534;DHT22;39421;53.204;6.568;2022-11-03T03:19:00;11.50;99.90
53534;DHT22;39421;53.204;6.568;2022-11-03T03:21:33;11.60;99.90
53534;DHT22;39421;53.204;6.568;2022-11-03T03:24:08;11.60;99.90
53534;DHT22;39421;53.204;6.568;2022-11-03T03:26:41;11.60;99.90
53534;DHT22;39421;53.204;6.568;2022-11-03T03:29:14;11.60;99.90
53534;DHT22;39421;53.204;6.568;2022-11-03T03:31:44;11.60;99.90
53534;DHT22;39421;53.204;6.568;2022-11-03T03:34:12;11.60;99.90
53534;DHT22;39421;53.204;6.568;2022-11-03T03:36:40;11.70;99.90
53534;DHT22;39421;53.204;6.568;2022-11-03T03:39:07;11.70;99.90
53534;DHT22;39421;53.204;6.568;2022-11-03T03:41:35;11.70;99.90
53534;DHT22;39421;53.204;6.568;2022-11-03T03:44:05;11.60;99.90
53534;DHT22;39421;53.204;6.568;2022-11-03T03:46:36;11.70;99.90
53534;DHT22;39421;53.204;6.568;2022-11-03T03:49:02;11.70;99.90
53534;DHT22;39421;53.204;6.568;2022-11-03T03:51:29;11.70;99.90
53534;DHT22;39421;53.204;6.568;2022-11-03T03:53:55;11.70;99.90
53534;DHT22;39421;53.204;6.568;2022-11-03T03:59:14;11.70;99.90
53534;DHT22;39421;53.204;6.568;2022-11-03T04:01:40;11.70;99.90
53534;DHT22;39421;53.204;6.568;2022-11-03T04:04:06;11.70;99.90
53534;DHT22;39421;53.204;6.568;2022-11-03T04:06:31;11.80;99.90
53534;DHT22;39421;53.204;6.568;2022-11-03T04:08:57;11.80;99.90
53534;DHT22;39421;53.204;6.568;2022-11-03T04:11:22;11.80;99.90
53534;DHT22;39421;53.204;6.568;2022-11-03T04:14:08;11.80;99.90
53534;DHT22;39421;53.204;6.568;2022-11-03T04:16:52;11.80;99.90
53534;DHT22;39421;53.204;6.568;2022-11-03T04:19:36;11.80;99.90
53534;DHT22;39421;53.204;6.568;2022-11-03T04:22:20;11.80;99.90
53534;DHT22;39421;53.204;6.568;2022-11-03T04:24:50;11.80;99.90
53534;DHT22;39421;53.204;6.568;2022-11-03T04:30:16;11.80;99.90
53534;DHT22;39421;53.204;6.568;2022-11-03T04:32:45;11.80;99.90
53534;DHT22;39421;53.204;6.568;2022-11-03T04:35:18;11.80;99.90
53534;DHT22;39421;53.204;6.568;2022-11-03T04:37:46;11.80;99.90
53534;DHT22;39421;53.204;6.568;2022-11-03T04:40:15;11.80;99.90
53534;DHT22;39421;53.204;6.568;2022-11-03T04:42:42;11.70;99.90
53534;DHT22;39421;53.204;6.568;2022-11-03T04:45:22;11.80;99.90
53534;DHT22;39421;53.204;6.568;2022-11-03T04:47:51;11.80;99.90
53534;DHT22;39421;53.204;6.568;2022-11-03T04:50:19;11.70;99.90
53534;DHT22;39421;53.204;6.568;2022-11-03T04:52:46;11.80;99.90
53534;DHT22;39421;53.204;6.568;2022-11-03T04:55:15;11.80;99.90
53534;DHT22;39421;53.204;6.568;2022-11-03T04:57:43;11.80;99.90
53534;DHT22;39421;53.204;6.568;2022-11-03T05:00:16;11.80;99.90
53534;DHT22;39421;53.204;6.568;2022-11-03T05:02:47;11.80;99.90
53534;DHT22;39421;53.204;6.568;2022-11-03T05:05:21;11.80;99.90
53534;DHT22;39421;53.204;6.568;2022-11-03T05:07:49;11.80;99.90
53534;DHT22;39421;53.204;6.568;2022-11-03T05:10:17;11.80;99.90
53534;DHT22;39421;53.204;6.568;2022-11-03T05:12:44;11.80;99.90
53534;DHT22;39421;53.204;6.568;2022-11-03T05:15:35;11.80;99.90
53534;DHT22;39421;53.204;6.568;2022-11-03T05:21:06;11.80;99.90
53534;DHT22;39421;53.204;6.568;2022-11-03T05:23:47;11.80;99.90
53534;DHT22;39421;53.204;6.568;2022-11-03T05:26:23;11.80;99.90
53534;DHT22;39421;53.204;6.568;2022-11-03T05:29:09;11.70;99.90
53534;DHT22;39421;53.204;6.568;2022-11-03T05:31:39;11.70;99.90
53534;DHT22;39421;53.204;6.568;2022-11-03T05:36:46;11.70;99.90
53534;DHT22;39421;53.204;6.568;2022-11-03T05:39:35;11.70;99.90
53534;DHT22;39421;53.204;6.568;2022-11-03T05:44:51;11.70;99.90
53534;DHT22;39421;53.204;6.568;2022-11-03T05:47:35;11.70;99.90
53534;DHT22;39421;53.204;6.568;2022-11-03T05:52:37;11.70;99.90
53534;DHT22;39421;53.204;6.568;2022-11-03T05:55:03;11.70;99.90
53534;DHT22;39421;53.204;6.568;2022-11-03T05:57:29;11.70;99.90
53534;DHT22;39421;53.204;6.568;2022-11-03T05:59:56;11.70;99.90
53534;DHT22;39421;53.204;6.568;2022-11-03T06:02:38;11.60;99.90
53534;DHT22;39421;53.204;6.568;2022-11-03T06:05:21;11.60;99.90
53534;DHT22;39421;53.204;6.568;2022-11-03T06:07:48;11.60;99.90
53534;DHT22;39421;53.204;6.568;2022-11-03T06:10:33;11.60;99.90
53534;DHT22;39421;53.204;6.568;2022-11-03T06:15:45;11.60;99.90
53534;DHT22;39421;53.204;6.568;2022-11-03T06:20:40;11.60;99.90
53534;DHT22;39421;53.204;6.568;2022-11-03T06:23:11;11.60;99.90
53534;DHT22;39421;53.204;6.568;2022-11-03T06:25:39;11.60;99.90
53534;DHT22;39421;53.204;6.568;2022-11-03T06:28:13;11.60;99.90
53534;DHT22;39421;53.204;6.568;2022-11-03T06:30:41;11.60;99.90
53534;DHT22;39421;53.204;6.568;2022-11-03T06:33:22;11.60;99.90
53534;DHT22;39421;53.204;6.568;2022-11-03T06:35:52;11.60;99.90
53534;DHT22;39421;53.204;6.568;2022-11-03T06:38:21;11.60;99.90
53534;DHT22;39421;53.204;6.568;2022-11-03T06:40:49;11.60;99.90
53534;DHT22;39421;53.204;6.568;2022-11-03T06:43:19;11.70;99.90
53534;DHT22;39421;53.204;6.568;2022-11-03T06:45:51;11.60;99.90
53534;DHT22;39421;53.204;6.568;2022-11-03T06:48:23;11.60;99.90
53534;DHT22;39421;53.204;6.568;2022-11-03T06:50:49;11.70;99.90
53534;DHT22;39421;53.204;6.568;2022-11-03T06:53:30;11.60;99.90
53534;DHT22;39421;53.204;6.568;2022-11-03T06:55:56;11.60;99.90
53534;DHT22;39421;53.204;6.568;2022-11-03T06:58:26;11.70;99.90
53534;DHT22;39421;53.204;6.568;2022-11-03T07:00:55;11.60;99.90
53534;DHT22;39421;53.204;6.568;2022-11-03T07:03:25;11.70;99.90
53534;DHT22;39421;53.204;6.568;2022-11-03T07:05:56;11.70;99.90
53534;DHT22;39421;53.204;6.568;2022-11-03T07:08:24;11.70;99.90
53534;DHT22;39421;53.204;6.568;2022-11-03T07:11:20;11.70;99.90
53534;DHT22;39421;53.204;6.568;2022-11-03T07:16:58;11.70;99.90
53534;DHT22;39421;53.204;6.568;2022-11-03T07:19:28;11.80;99.90
53534;DHT22;39421;53.204;6.568;2022-11-03T07:22:00;11.80;99.90
53534;DHT22;39421;53.204;6.568;2022-11-03T07:24:30;11.80;99.90
53534;DHT22;39421;53.204;6.568;2022-11-03T07:29:42;11.90;99.90
53534;DHT22;39421;53.204;6.568;2022-11-03T07:32:15;11.90;99.90
53534;DHT22;39421;53.204;6.568;2022-11-03T07:34:43;11.90;99.90
53534;DHT22;39421;53.204;6.568;2022-11-03T07:37:21;11.90;99.90
53534;DHT22;39421;53.204;6.568;2022-11-03T07:39:47;12.00;99.90
53534;DHT22;39421;53.204;6.568;2022-11-03T07:42:23;12.00;99.90
53534;DHT22;39421;53.204;6.568;2022-11-03T07:44:50;12.00;99.90
53534;DHT22;39421;53.204;6.568;2022-11-03T07:47:22;12.00;99.90
53534;DHT22;39421;53.204;6.568;2022-11-03T07:49:50;12.00;99.90
53534;DHT22;39421;53.204;6.568;2022-11-03T07:52:20;12.10;99.90
53534;DHT22;39421;53.204;6.568;2022-11-03T07:54:47;12.10;99.90
53534;DHT22;39421;53.204;6.568;2022-11-03T07:57:23;12.10;99.90
53534;DHT22;39421;53.204;6.568;2022-11-03T07:59:53;12.10;99.90
53534;DHT22;39421;53.204;6.568;2022-11-03T08:02:49;12.20;99.90
53534;DHT22;39421;53.204;6.568;2022-11-03T08:05:16;12.20;99.90
53534;DHT22;39421;53.204;6.568;2022-11-03T08:07:42;12.20;99.90
53534;DHT22;39421;53.204;6.568;2022-11-03T08:10:08;12.20;99.90
53534;DHT22;39421;53.204;6.568;2022-11-03T08:12:34;12.30;99.90
53534;DHT22;39421;53.204;6.568;2022-11-03T08:14:59;12.30;99.90
53534;DHT22;39421;53.204;6.568;2022-11-03T08:17:25;12.30;99.90
53534;DHT22;39421;53.204;6.568;2022-11-03T08:19:51;12.40;99.90
53534;DHT22;39421;53.204;6.568;2022-11-03T08:22:17;12.40;99.90
53534;DHT22;39421;53.204;6.568;2022-11-03T08:24:43;12.50;99.90
53534;DHT22;39421;53.204;6.568;2022-11-03T08:27:08;12.60;99.90
53534;DHT22;39421;53.204;6.568;2022-11-03T08:29:34;12.60;99.90
53534;DHT22;39421;53.204;6.568;2022-11-03T08:32:00;12.70;99.90
53534;DHT22;39421;53.204;6.568;2022-11-03T08:34:25;12.70;99.90
53534;DHT22;39421;53.204;6.568;2022-11-03T08:36:51;12.80;99.90
53534;DHT22;39421;53.204;6.568;2022-11-03T08:39:17;12.90;99.90
53534;DHT22;39421;53.204;6.568;2022-11-03T08:41:42;12.90;99.90
53534;DHT22;39421;53.204;6.568;2022-11-03T08:44:08;13.10;99.90
53534;DHT22;39421;53.204;6.568;2022-11-03T08:46:34;13.20;99.90
53534;DHT22;39421;53.204;6.568;2022-11-03T08:48:59;13.20;99.90
53534;DHT22;39421;53.204;6.568;2022-11-03T08:51:25;13.20;99.90
53534;DHT22;39421;53.204;6.568;2022-11-03T08:53:51;13.30;99.90
53534;DHT22;39421;53.204;6.568;2022-11-03T08:56:18;13.30;99.90
53534;DHT22;39421;53.204;6.568;2022-11-03T08:58:45;13.30;99.90
53534;DHT22;39421;53.204;6.568;2022-11-03T09:01:11;13.30;99.90
53534;DHT22;39421;53.204;6.568;2022-11-03T09:03:37;13.40;99.90
53534;DHT22;39421;53.204;6.568;2022-11-03T09:06:03;13.40;99.90
53534;DHT22;39421;53.204;6.568;2022-11-03T09:08:29;13.40;99.90
53534;DHT22;39421;53.204;6.568;2022-11-03T09:10:55;13.30;99.90
53534;DHT22;39421;53.204;6.568;2022-11-03T09:13:20;13.30;99.90
53534;DHT22;39421;53.204;6.568;2022-11-03T09:15:46;13.40;99.90
53534;DHT22;39421;53.204;6.568;2022-11-03T09:18:12;13.40;99.90
53534;DHT22;39421;53.204;6.568;2022-11-03T09:20:37;13.40;99.90
53534;DHT22;39421;53.204;6.568;2022-11-03T09:23:03;13.40;99.90
53534;DHT22;39421;53.204;6.568;2022-11-03T09:25:29;13.50;99.90
53534;DHT22;39421;53.204;6.568;2022-11-03T09:27:54;13.50;99.90
53534;DHT22;39421;53.204;6.568;2022-11-03T09:30:20;13.60;99.90
53534;DHT22;39421;53.204;6.568;2022-11-03T09:32:45;13.60;99.90
53534;DHT22;39421;53.204;6.568;2022-11-03T09:35:12;13.60;99.90
53534;DHT22;39421;53.204;6.568;2022-11-03T09:37:39;13.70;99.90
53534;DHT22;39421;53.204;6.568;2022-11-03T09:40:06;13.70;99.90
53534;DHT22;39421;53.204;6.568;2022-11-03T09:42:33;13.80;99.90
53534;DHT22;39421;53.204;6.568;2022-11-03T09:44:59;13.80;99.90
53534;DHT22;39421;53.204;6.568;2022-11-03T09:47:34;13.90;99.90
53534;DHT22;39421;53.204;6.568;2022-11-03T09:50:01;13.90;99.90
53534;DHT22;39421;53.204;6.568;2022-11-03T09:52:27;13.90;99.90
53534;DHT22;39421;53.204;6.568;2022-11-03T09:54:53;14.00;99.90
53534;DHT22;39421;53.204;6.568;2022-11-03T09:57:26;14.00;99.90
53534;DHT22;39421;53.204;6.568;2022-11-03T09:59:52;14.00;99.90
53534;DHT22;39421;53.204;6.568;2022-11-03T10:02:29;14.00;99.90
53534;DHT22;39421;53.204;6.568;2022-11-03T10:04:57;14.10;99.90
53534;DHT22;39421;53.204;6.568;2022-11-03T10:07:26;14.20;99.90
53534;DHT22;39421;53.204;6.568;2022-11-03T10:09:53;14.20;99.90
53534;DHT22;39421;53.204;6.568;2022-11-03T10:12:21;14.30;99.90
53534;DHT22;39421;53.204;6.568;2022-11-03T10:14:48;14.30;99.90
53534;DHT22;39421;53.204;6.568;2022-11-03T10:17:20;14.30;99.90
53534;DHT22;39421;53.204;6.568;2022-11-03T10:19:51;14.30;99.90
53534;DHT22;39421;53.204;6.568;2022-11-03T10:22:20;14.40;99.90
53534;DHT22;39421;53.204;6.568;2022-11-03T10:24:47;14.40;99.90
53534;DHT22;39421;53.204;6.568;2022-11-03T10:27:22;14.50;99.90
53534;DHT22;39421;53.204;6.568;2022-11-03T10:32:29;14.60;99.90
53534;DHT22;39421;53.204;6.568;2022-11-03T10:34:55;14.60;99.90
53534;DHT22;39421;53.204;6.568;2022-11-03T10:37:24;14.60;99.90
53534;DHT22;39421;53.204;6.568;2022-11-03T10:39:52;14.70;99.90
53534;DHT22;39421;53.204;6.568;2022-11-03T10:42:23;14.70;99.90
53534;DHT22;39421;53.204;6.568;2022-11-03T10:44:53;14.80;99.90
53534;DHT22;39421;53.204;6.568;2022-11-03T10:47:30;14.80;99.90
53534;DHT22;39421;53.204;6.568;2022-11-03T10:49:58;14.90;99.90
53534;DHT22;39421;53.204;6.568;2022-11-03T10:52:27;15.00;99.90
53534;DHT22;39421;53.204;6.568;2022-11-03T10:54:57;15.10;99.90
53534;DHT22;39421;53.204;6.568;2022-11-03T10:57:24;15.20;99.90
53534;DHT22;39421;53.204;6.568;2022-11-03T10:59:51;15.30;99.90
53534;DHT22;39421;53.204;6.568;2022-11-03T11:02:21;15.40;99.90
53534;DHT22;39421;53.204;6.568;2022-11-03T11:05:00;15.40;99.90
53534;DHT22;39421;53.204;6.568;2022-11-03T11:07:38;15.30;99.90
53534;DHT22;39421;53.204;6.568;2022-11-03T11:10:22;15.40;99.90
53534;DHT22;39421;53.204;6.568;2022-11-03T11:13:21;15.40;99.90
53534;DHT22;39421;53.204;6.568;2022-11-03T11:15:48;15.60;99.90
53534;DHT22;39421;53.204;6.568;2022-11-03T11:20:52;15.90;99.90
53534;DHT22;39421;53.204;6.568;2022-11-03T11:28:43;16.10;99.90
53534;DHT22;39421;53.204;6.568;2022-11-03T11:42:15;16.20;99.90
53534;DHT22;39421;53.204;6.568;2022-11-03T11:57:52;16.00;99.90
53534;DHT22;39421;53.204;6.568;2022-11-03T12:00:19;16.00;99.90
53534;DHT22;39421;53.204;6.568;2022-11-03T12:02:48;16.00;99.90
53534;DHT22;39421;53.204;6.568;2022-11-03T12:05:28;16.00;99.90
53534;DHT22;39421;53.204;6.568;2022-11-03T12:07:55;16.00;99.90
53534;DHT22;39421;53.204;6.568;2022-11-03T12:10:26;16.10;99.90
53534;DHT22;39421;53.204;6.568;2022-11-03T12:12:57;16.10;99.90
53534;DHT22;39421;53.204;6.568;2022-11-03T12:15:49;16.10;99.90
53534;DHT22;39421;53.204;6.568;2022-11-03T12:18:31;16.10;99.90
53534;DHT22;39421;53.204;6.568;2022-11-03T12:20:57;16.10;99.90
53534;DHT22;39421;53.204;6.568;2022-11-03T12:23:44;16.10;99.90
53534;DHT22;39421;53.204;6.568;2022-11-03T12:26:16;16.10;99.90
53534;DHT22;39421;53.204;6.568;2022-11-03T12:28:43;16.00;99.90
53534;DHT22;39421;53.204;6.568;2022-11-03T12:31:09;16.00;99.90
53534;DHT22;39421;53.204;6.568;2022-11-03T12:33:34;16.00;99.90
53534;DHT22;39421;53.204;6.568;2022-11-03T12:36:00;16.00;99.90
53534;DHT22;39421;53.204;6.568;2022-11-03T12:38:26;16.00;99.90
53534;DHT22;39421;53.204;6.568;2022-11-03T12:40:52;16.00;99.90
53534;DHT22;39421;53.204;6.568;2022-11-03T12:43:18;16.00;99.90
53534;DHT22;39421;53.204;6.568;2022-11-03T12:45:44;15.90;99.90
53534;DHT22;39421;53.204;6.568;2022-11-03T12:48:10;15.90;99.90
53534;DHT22;39421;53.204;6.568;2022-11-03T12:50:36;16.00;99.90
53534;DHT22;39421;53.204;6.568;2022-11-03T12:53:04;15.90;99.90
53534;DHT22;39421;53.204;6.568;2022-11-03T12:55:32;16.00;99.90
53534;DHT22;39421;53.204;6.568;2022-11-03T12:57:57;16.00;99.90
53534;DHT22;39421;53.204;6.568;2022-11-03T13:00:23;16.00;99.90
53534;DHT22;39421;53.204;6.568;2022-11-03T13:02:49;16.00;99.90
53534;DHT22;39421;53.204;6.568;2022-11-03T13:05:15;16.00;99.90
53534;DHT22;39421;53.204;6.568;2022-11-03T13:07:41;16.00;99.90
53534;DHT22;39421;53.204;6.568;2022-11-03T13:10:08;16.00;99.90
53534;DHT22;39421;53.204;6.568;2022-11-03T13:12:34;16.00;99.90
53534;DHT22;39421;53.204;6.568;2022-11-03T13:15:05;16.10;99.90
53534;DHT22;39421;53.204;6.568;2022-11-03T13:17:31;16.10;99.90
53534;DHT22;39421;53.204;6.568;2022-11-03T13:19:58;16.10;99.90
53534;DHT22;39421;53.204;6.568;2022-11-03T13:22:24;16.10;99.90
53534;DHT22;39421;53.204;6.568;2022-11-03T13:24:49;16.10;99.90
53534;DHT22;39421;53.204;6.568;2022-11-03T13:27:15;16.10;99.90
53534;DHT22;39421;53.204;6.568;2022-11-03T13:29:41;16.10;99.90
53534;DHT22;39421;53.204;6.568;2022-11-03T13:32:07;16.10;99.90
53534;DHT22;39421;53.204;6.568;2022-11-03T13:34:33;16.00;99.90
53534;DHT22;39421;53.204;6.568;2022-11-03T13:36:58;16.00;99.90
53534;DHT22;39421;53.204;6.568;2022-11-03T13:39:24;16.00;99.90
53534;DHT22;39421;53.204;6.568;2022-11-03T13:41:50;16.00;99.90
53534;DHT22;39421;53.204;6.568;2022-11-03T13:44:15;15.90;99.90
53534;DHT22;39421;53.204;6.568;2022-11-03T13:46:41;15.90;99.90
53534;DHT22;39421;53.204;6.568;2022-11-03T13:49:07;15.90;99.90
53534;DHT22;39421;53.204;6.568;2022-11-03T13:51:32;15.90;99.90
53534;DHT22;39421;53.204;6.568;2022-11-03T13:53:58;15.90;99.90
53534;DHT22;39421;53.204;6.568;2022-11-03T13:56:24;15.90;99.90
53534;DHT22;39421;53.204;6.568;2022-11-03T13:58:50;15.80;99.90
53534;DHT22;39421;53.204;6.568;2022-11-03T14:01:15;15.80;99.90
53534;DHT22;39421;53.204;6.568;2022-11-03T14:03:41;15.80;99.90
53534;DHT22;39421;53.204;6.568;2022-11-03T14:06:07;15.70;99.90
53534;DHT22;39421;53.204;6.568;2022-11-03T14:08:33;15.70;99.90
53534;DHT22;39421;53.204;6.568;2022-11-03T14:10:58;15.70;99.90
53534;DHT22;39421;53.204;6.568;2022-11-03T14:13:44;15.70;99.90
53534;DHT22;39421;53.204;6.568;2022-11-03T14:16:10;15.70;99.90
53534;DHT22;39421;53.204;6.568;2022-11-03T14:18:35;15.70;99.90
53534;DHT22;39421;53.204;6.568;2022-11-03T14:21:01;15.70;99.90
53534;DHT22;39421;53.204;6.568;2022-11-03T14:23:26;15.60;99.90
53534;DHT22;39421;53.204;6.568;2022-11-03T14:25:52;15.60;99.90
53534;DHT22;39421;53.204;6.568;2022-11-03T14:28:18;15.70;99.90
53534;DHT22;39421;53.204;6.568;2022-11-03T14:30:43;15.70;99.90
53534;DHT22;39421;53.204;6.568;2022-11-03T14:33:09;15.60;99.90
53534;DHT22;39421;53.204;6.568;2022-11-03T14:35:34;15.60;99.90
53534;DHT22;39421;53.204;6.568;2022-11-03T14:38:00;15.60;99.90
53534;DHT22;39421;53.204;6.568;2022-11-03T14:40:26;15.60;99.90
53534;DHT22;39421;53.204;6.568;2022-11-03T14:43:10;15.50;99.90
53534;DHT22;39421;53.204;6.568;2022-11-03T14:45:35;15.50;99.90
53534;DHT22;39421;53.204;6.568;2022-11-03T14:48:01;15.50;99.90
53534;DHT22;39421;53.204;6.568;2022-11-03T14:50:27;15.50;99.90
53534;DHT22;39421;53.204;6.568;2022-11-03T14:52:52;15.40;99.90
53534;DHT22;39421;53.204;6.568;2022-11-03T14:55:18;15.40;99.90
53534;DHT22;39421;53.204;6.568;2022-11-03T14:57:44;15.40;99.90
53534;DHT22;39421;53.204;6.568;2022-11-03T15:00:10;15.40;99.90
53534;DHT22;39421;53.204;6.568;2022-11-03T15:02:35;15.40;99.90
53534;DHT22;39421;53.204;6.568;2022-11-03T15:05:01;15.40;99.90
53534;DHT22;39421;53.204;6.568;2022-11-03T15:07:27;15.40;99.90
53534;DHT22;39421;53.204;6.568;2022-11-03T15:09:52;15.50;99.90
53534;DHT22;39421;53.204;6.568;2022-11-03T15:12:18;15.50;99.90
53534;DHT22;39421;53.204;6.568;2022-11-03T15:14:44;15.40;99.90
53534;DHT22;39421;53.204;6.568;2022-11-03T15:17:09;15.40;99.90
53534;DHT22;39421;53.204;6.568;2022-11-03T15:19:35;15.40;99.90
53534;DHT22;39421;53.204;6.568;2022-11-03T15:22:01;15.40;99.90
53534;DHT22;39421;53.204;6.568;2022-11-03T15:24:27;15.40;99.90
53534;DHT22;39421;53.204;6.568;2022-11-03T15:26:52;15.30;99.90
53534;DHT22;39421;53.204;6.568;2022-11-03T15:29:18;15.30;99.90
53534;DHT22;39421;53.204;6.568;2022-11-03T15:31:44;15.30;99.90
53534;DHT22;39421;53.204;6.568;2022-11-03T15:34:10;15.30;99.90
53534;DHT22;39421;53.204;6.568;2022-11-03T15:36:35;15.30;99.90
53534;DHT22;39421;53.204;6.568;2022-11-03T15:39:01;15.30;99.90
53534;DHT22;39421;53.204;6.568;2022-11-03T15:41:27;15.20;99.90
53534;DHT22;39421;53.204;6.568;2022-11-03T15:43:53;15.20;99.90
53534;DHT22;39421;53.204;6.568;2022-11-03T15:46:18;15.20;99.90
53534;DHT22;39421;53.204;6.568;2022-11-03T15:48:44;15.20;99.90
53534;DHT22;39421;53.204;6.568;2022-11-03T15:51:11;15.20;99.90
53534;DHT22;39421;53.204;6.568;2022-11-03T15:53:37;15.20;99.90
53534;DHT22;39421;53.204;6.568;2022-11-03T15:56:03;15.20;99.90
53534;DHT22;39421;53.204;6.568;2022-11-03T15:58:29;15.20;99.90
53534;DHT22;39421;53.204;6.568;2022-11-03T16:00:58;15.20;99.90
53534;DHT22;39421;53.204;6.568;2022-11-03T16:03:24;15.10;99.90
53534;DHT22;39421;53.204;6.568;2022-11-03T16:05:50;15.10;99.90
53534;DHT22;39421;53.204;6.568;2022-11-03T16:08:15;15.10;99.90
53534;DHT22;39421;53.204;6.568;2022-11-03T16:10:41;15.10;99.90
53534;DHT22;39421;53.204;6.568;2022-11-03T16:13:07;15.00;99.90
53534;DHT22;39421;53.204;6.568;2022-11-03T16:15:32;15.00;99.90
53534;DHT22;39421;53.204;6.568;2022-11-03T16:17:58;15.00;99.90
53534;DHT22;39421;53.204;6.568;2022-11-03T16:20:28;15.00;99.90
53534;DHT22;39421;53.204;6.568;2022-11-03T16:22:54;15.00;99.90
53534;DHT22;39421;53.204;6.568;2022-11-03T16:25:19;15.00;99.90
53534;DHT22;39421;53.204;6.568;2022-11-03T16:27:45;14.90;99.90
53534;DHT22;39421;53.204;6.568;2022-11-03T16:30:11;14.90;99.90
53534;DHT22;39421;53.204;6.568;2022-11-03T16:32:37;14.90;99.90
53534;DHT22;39421;53.204;6.568;2022-11-03T16:35:02;14.90;99.90
53534;DHT22;39421;53.204;6.568;2022-11-03T16:37:28;14.90;99.90
53534;DHT22;39421;53.204;6.568;2022-11-03T16:39:54;14.90;99.90
53534;DHT22;39421;53.204;6.568;2022-11-03T16:42:20;14.90;99.90
53534;DHT22;39421;53.204;6.568;2022-11-03T16:44:45;14.90;99.90
53534;DHT22;39421;53.204;6.568;2022-11-03T16:47:11;14.90;99.90
53534;DHT22;39421;53.204;6.568;2022-11-03T16:49:36;14.80;99.90
53534;DHT22;39421;53.204;6.568;2022-11-03T16:52:09;14.90;99.90
53534;DHT22;39421;53.204;6.568;2022-11-03T16:54:35;14.90;99.90
53534;DHT22;39421;53.204;6.568;2022-11-03T16:57:01;14.80;99.90
53534;DHT22;39421;53.204;6.568;2022-11-03T16:59:26;14.80;99.90
53534;DHT22;39421;53.204;6.568;2022-11-03T17:01:52;14.80;99.90
53534;DHT22;39421;53.204;6.568;2022-11-03T17:04:18;14.80;99.90